createdAt,value
2022-08-17T00:01:51.795Z,58.55
2022-08-17T00:04:23.710Z,58.60
2022-08-17T00:06:53.575Z,58.73
2022-08-17T00:09:22.107Z,58.58
2022-08-17T00:12:42.248Z,58.87
2022-08-17T00:14:40.189Z,59.05
2022-08-17T00:17:08.734Z,59.04
2022-08-17T00:19:38.690Z,58.80
2022-08-17T00:22:34.963Z,59.10
2022-08-17T00:24:56.399Z,58.89
2022-08-17T00:27:25.992Z,59.09
2022-08-17T00:29:54.521Z,59.24
2022-08-17T00:33:22.799Z,58.89
2022-08-17T00:35:17.889Z,59.02
2022-08-17T00:37:46.404Z,59.10
2022-08-17T00:40:17.015Z,58.88
2022-08-17T00:42:48.009Z,59.24
2022-08-17T00:45:20.526Z,59.06
2022-08-17T00:47:49.724Z,59.03
2022-08-17T00:50:20.920Z,59.11
2022-08-17T00:52:55.819Z,59.29
2022-08-17T00:55:25.230Z,59.13
2022-08-17T00:58:00.087Z,59.13
2022-08-17T01:00:30.829Z,59.26
2022-08-17T01:03:03.329Z,59.26
2022-08-17T01:05:38.539Z,59.47
2022-08-17T01:08:14.035Z,59.46
2022-08-17T01:10:57.445Z,59.35
2022-08-17T01:13:35.502Z,59.45
2022-08-17T01:16:13.068Z,59.34
2022-08-17T01:18:42.469Z,59.34
2022-08-17T01:21:20.499Z,59.20
2022-08-17T01:23:50.795Z,59.03
2022-08-17T01:26:20.739Z,59.46
2022-08-17T01:28:54.397Z,59.56
2022-08-17T01:31:29.264Z,59.56
2022-08-17T01:33:59.705Z,59.48
2022-08-17T01:36:30.779Z,59.51
2022-08-17T01:39:01.001Z,59.48
2022-08-17T01:41:30.729Z,59.44
2022-08-17T01:44:02.954Z,59.65
2022-08-17T01:46:34.908Z,59.54
2022-08-17T01:49:07.020Z,59.34
2022-08-17T01:51:35.759Z,59.57
2022-08-17T01:54:09.953Z,59.52
2022-08-17T01:56:41.499Z,59.62
2022-08-17T01:59:10.069Z,59.42
2022-08-17T02:01:39.125Z,59.66
2022-08-17T02:04:09.532Z,59.66
2022-08-17T02:06:52.558Z,59.57
2022-08-17T02:09:26.061Z,59.64
2022-08-17T02:11:58.661Z,59.42
2022-08-17T02:14:28.077Z,59.83
2022-08-17T02:16:56.769Z,59.68
2022-08-17T02:19:25.251Z,59.50
2022-08-17T02:21:55.720Z,59.84
2022-08-17T02:25:00.252Z,59.91
2022-08-17T02:27:16.892Z,59.65
2022-08-17T02:29:45.415Z,59.80
2022-08-17T02:32:27.185Z,59.80
2022-08-17T02:34:57.484Z,59.53
2022-08-17T02:37:26.269Z,59.89
2022-08-17T02:39:58.377Z,60.10
2022-08-17T02:42:31.683Z,59.75
2022-08-17T02:45:00.723Z,59.96
2022-08-17T02:47:29.988Z,59.70
2022-08-17T02:49:58.661Z,59.72
2022-08-17T02:52:41.961Z,59.94
2022-08-17T02:55:16.391Z,59.99
2022-08-17T02:57:45.528Z,59.74
2022-08-17T03:00:16.808Z,59.95
2022-08-17T03:02:47.158Z,59.74
2022-08-17T03:05:19.109Z,59.92
2022-08-17T03:07:48.229Z,59.88
2022-08-17T03:10:18.718Z,59.85
2022-08-17T03:12:48.050Z,59.93
2022-08-17T03:15:20.239Z,59.90
2022-08-17T03:17:49.509Z,60.15
2022-08-17T03:20:20.442Z,59.74
2022-08-17T03:22:53.357Z,59.78
2022-08-17T03:25:26.917Z,59.74
2022-08-17T03:27:56.972Z,59.78
2022-08-17T03:30:26.759Z,59.84
2022-08-17T03:32:57.480Z,59.93
2022-08-17T03:35:29.880Z,59.88
2022-08-17T03:38:00.375Z,59.97
2022-08-17T03:40:34.478Z,59.90
2022-08-17T03:43:21.091Z,60.05
2022-08-17T03:46:24.910Z,60.26
2022-08-17T03:49:13.031Z,60.16
2022-08-17T03:51:58.539Z,60.14
2022-08-17T03:54:44.756Z,60.24
2022-08-17T03:57:14.387Z,59.99
2022-08-17T03:59:42.959Z,60.05
2022-08-17T04:02:17.669Z,60.21
2022-08-17T04:04:46.289Z,60.12
2022-08-17T04:07:14.813Z,60.03
2022-08-17T04:09:44.028Z,59.90
2022-08-17T04:12:16.893Z,60.20
2022-08-17T04:14:53.187Z,60.22
2022-08-17T04:17:24.901Z,60.47
2022-08-17T04:19:53.971Z,60.38
2022-08-17T04:22:30.869Z,60.09
2022-08-17T04:25:00.277Z,60.30
2022-08-17T04:27:30.529Z,60.01
2022-08-17T04:29:59.318Z,60.11
2022-08-17T04:33:00.440Z,60.23
2022-08-17T04:35:20.889Z,60.19
2022-08-17T04:37:49.630Z,60.25
2022-08-17T04:40:36.680Z,60.23
2022-08-17T04:43:09.140Z,60.03
2022-08-17T04:45:55.067Z,60.46
2022-08-17T04:48:35.368Z,60.18
2022-08-17T04:51:07.899Z,60.29
2022-08-17T04:53:36.551Z,60.50
2022-08-17T04:56:05.773Z,60.66
2022-08-17T04:58:35.849Z,60.59
2022-08-17T05:01:06.069Z,60.57
2022-08-17T05:03:35.629Z,60.65
2022-08-17T05:06:04.749Z,60.33
2022-08-17T05:08:33.349Z,60.49
2022-08-17T05:11:02.234Z,60.41
2022-08-17T05:13:31.092Z,60.52
2022-08-17T05:16:03.629Z,60.36
2022-08-17T05:18:32.699Z,60.41
2022-08-17T05:21:01.821Z,60.38
2022-08-17T05:23:42.070Z,60.00
2022-08-17T05:26:26.297Z,60.06
2022-08-17T05:29:02.535Z,59.90
2022-08-17T05:31:33.152Z,60.19
2022-08-17T05:34:01.784Z,60.03
2022-08-17T05:36:43.542Z,59.82
2022-08-17T05:39:15.713Z,59.87
2022-08-17T05:41:45.555Z,59.85
2022-08-17T05:44:15.706Z,60.12
2022-08-17T05:46:49.491Z,60.11
2022-08-17T05:49:20.911Z,59.70
2022-08-17T05:52:07.789Z,59.61
2022-08-17T05:54:47.939Z,59.56
2022-08-17T05:57:39.608Z,59.99
2022-08-17T06:00:20.976Z,59.60
2022-08-17T06:03:13.389Z,59.84
2022-08-17T06:05:56.336Z,59.72
2022-08-17T06:08:35.770Z,59.58
2022-08-17T06:11:15.741Z,59.54
2022-08-17T06:14:05.382Z,59.62
2022-08-17T06:16:40.211Z,59.73
2022-08-17T06:19:16.589Z,59.42
2022-08-17T06:21:50.200Z,59.56
2022-08-17T06:24:29.641Z,59.62
2022-08-17T06:27:03.100Z,59.53
2022-08-17T06:29:40.251Z,59.18
2022-08-17T06:32:12.953Z,59.22
2022-08-17T06:34:44.700Z,59.04
2022-08-17T06:37:29.218Z,59.28
2022-08-17T06:40:14.078Z,59.13
2022-08-17T06:43:05.025Z,59.01
2022-08-17T06:45:39.360Z,58.64
2022-08-17T06:48:15.530Z,58.85
2022-08-17T06:50:49.723Z,58.43
2022-08-17T06:53:25.551Z,58.54
2022-08-17T06:56:01.291Z,58.73
2022-08-17T06:58:31.772Z,58.59
2022-08-17T07:01:07.450Z,58.79
2022-08-17T07:03:41.150Z,58.68
2022-08-17T07:06:16.106Z,58.73
2022-08-17T07:08:55.443Z,58.39
2022-08-17T07:11:29.197Z,58.67
2022-08-17T07:14:08.901Z,58.36
2022-08-17T07:16:44.229Z,58.43
2022-08-17T07:19:14.651Z,58.30
2022-08-17T07:21:51.910Z,58.17
2022-08-17T07:24:38.180Z,58.06
2022-08-17T07:27:09.555Z,58.47
2022-08-17T07:29:42.371Z,58.19
2022-08-17T07:32:12.810Z,58.25
2022-08-17T07:35:11.534Z,57.89
2022-08-17T07:37:43.840Z,57.91
2022-08-17T07:40:31.644Z,57.93
2022-08-17T07:43:22.011Z,57.67
2022-08-17T07:46:19.300Z,57.68
2022-08-17T07:48:51.121Z,57.15
2022-08-17T07:51:25.740Z,56.89
2022-08-17T07:54:13.127Z,56.13
2022-08-17T07:56:46.407Z,56.52
2022-08-17T07:59:23.366Z,56.18
2022-08-17T08:02:06.313Z,56.40
2022-08-17T08:07:32.105Z,54.76
2022-08-17T08:10:10.440Z,55.15
2022-08-17T08:12:41.730Z,56.49
2022-08-17T08:15:19.124Z,54.22
2022-08-17T08:17:55.230Z,53.21
2022-08-17T08:20:52.145Z,54.88
2022-08-17T08:23:36.372Z,53.88
2022-08-17T08:26:21.783Z,54.46
2022-08-17T08:29:01.872Z,55.66
2022-08-17T08:31:42.530Z,54.18
2022-08-17T08:34:49.700Z,55.08
2022-08-17T08:37:20.775Z,55.82
2022-08-17T08:40:16.882Z,54.60
2022-08-17T08:42:56.684Z,54.48
2022-08-17T08:45:30.780Z,53.36
2022-08-17T08:48:56.955Z,56.30
2022-08-17T08:51:09.045Z,54.19
2022-08-17T08:53:50.033Z,56.44
2022-08-17T08:56:38.925Z,55.81
2022-08-17T08:59:21.111Z,55.46
2022-08-17T09:02:06.770Z,56.15
2022-08-17T09:05:13.411Z,56.27
2022-08-17T09:07:54.709Z,56.68
2022-08-17T09:10:31.381Z,56.01
2022-08-17T09:13:11.064Z,56.38
2022-08-17T09:15:46.652Z,56.15
2022-08-17T09:19:00.480Z,56.19
2022-08-17T09:21:21.315Z,53.97
2022-08-17T09:24:08.022Z,55.76
2022-08-17T09:26:53.051Z,54.70
2022-08-17T09:29:28.400Z,56.01
2022-08-17T09:32:03.970Z,55.57
2022-08-17T09:34:37.530Z,55.50
2022-08-17T09:37:25.465Z,55.15
2022-08-17T09:40:13.279Z,55.71
2022-08-17T09:42:54.691Z,55.46
2022-08-17T09:45:40.900Z,55.52
2022-08-17T09:48:28.558Z,55.85
2022-08-17T09:51:13.261Z,55.52
2022-08-17T09:53:51.090Z,55.84
2022-08-17T09:56:48.278Z,55.09
2022-08-17T09:59:44.718Z,55.73
2022-08-17T10:02:40.670Z,55.15
2022-08-17T10:05:21.543Z,56.34
2022-08-17T10:08:00.614Z,56.49
2022-08-17T10:10:56.378Z,56.47
2022-08-17T10:13:37.015Z,55.58
2022-08-17T10:16:15.578Z,55.41
2022-08-17T10:18:56.131Z,55.76
2022-08-17T10:21:47.430Z,54.05
2022-08-17T10:24:38.790Z,55.98
2022-08-17T10:27:14.481Z,55.58
2022-08-17T10:29:49.621Z,55.83
2022-08-17T10:32:33.077Z,55.00
2022-08-17T10:35:31.655Z,53.57
2022-08-17T10:38:41.247Z,56.24
2022-08-17T10:41:29.190Z,55.89
2022-08-17T10:44:40.358Z,56.46
2022-08-17T10:47:23.420Z,56.44
2022-08-17T10:50:08.929Z,55.42
2022-08-17T10:52:53.424Z,55.25
2022-08-17T10:55:26.641Z,54.57
2022-08-17T10:58:25.219Z,52.75
2022-08-17T11:01:01.258Z,54.25
2022-08-17T11:03:36.174Z,54.85
2022-08-17T11:06:19.680Z,55.08
2022-08-17T11:09:24.066Z,54.05
2022-08-17T11:12:15.910Z,55.95
2022-08-17T11:15:03.089Z,56.31
2022-08-17T11:18:23.130Z,56.48
2022-08-17T11:21:27.480Z,56.14
2022-08-17T11:24:20.838Z,56.59
2022-08-17T11:27:12.518Z,54.82
2022-08-17T11:29:58.129Z,56.86
2022-08-17T11:32:34.590Z,56.31
2022-08-17T11:35:29.869Z,56.71
2022-08-17T11:38:16.701Z,56.11
2022-08-17T11:41:10.825Z,55.94
2022-08-17T11:44:27.783Z,56.22
2022-08-17T11:47:37.168Z,53.51
2022-08-17T11:50:48.698Z,56.24
2022-08-17T11:54:21.430Z,56.47
2022-08-17T11:56:51.025Z,56.43
2022-08-17T11:59:59.890Z,56.66
2022-08-17T12:02:47.912Z,54.78
2022-08-17T12:05:35.398Z,53.52
2022-08-17T12:08:14.981Z,56.06
2022-08-17T12:10:59.869Z,55.43
2022-08-17T12:13:38.709Z,56.24
2022-08-17T12:16:10.690Z,56.73
2022-08-17T12:18:42.439Z,54.12
2022-08-17T12:21:40.438Z,52.90
2022-08-17T12:24:23.164Z,53.93
2022-08-17T12:26:59.543Z,56.22
2022-08-17T12:29:35.550Z,56.31
2022-08-17T12:32:21.103Z,56.55
2022-08-17T12:34:51.895Z,55.43
2022-08-17T12:37:22.743Z,55.18
2022-08-17T12:39:55.378Z,55.93
2022-08-17T12:42:27.839Z,56.34
2022-08-17T12:44:57.049Z,56.25
2022-08-17T12:47:29.353Z,54.21
2022-08-17T12:50:28.971Z,55.64
2022-08-17T12:53:01.901Z,56.48
2022-08-17T12:55:37.154Z,56.44
2022-08-17T12:58:12.254Z,55.41
2022-08-17T13:00:52.464Z,56.47
2022-08-17T13:03:30.738Z,55.99
2022-08-17T13:06:26.963Z,56.24
2022-08-17T13:09:01.198Z,56.22
2022-08-17T13:11:32.313Z,56.42
2022-08-17T13:14:11.717Z,56.33
2022-08-17T13:16:40.274Z,56.11
2022-08-17T13:19:17.759Z,56.02
2022-08-17T13:22:50.684Z,56.18
2022-08-17T13:25:22.429Z,55.92
2022-08-17T13:28:02.817Z,56.07
2022-08-17T13:30:34.105Z,55.76
2022-08-17T13:33:57.583Z,55.80
2022-08-17T13:36:31.044Z,55.76
2022-08-17T13:39:09.876Z,55.60
2022-08-17T13:41:39.743Z,55.76
2022-08-17T13:44:32.800Z,55.65
2022-08-17T13:47:02.554Z,55.37
2022-08-17T13:49:49.090Z,55.50
2022-08-17T13:52:39.135Z,54.17
2022-08-17T13:55:10.635Z,55.16
2022-08-17T13:57:39.193Z,53.93
2022-08-17T14:00:18.423Z,55.30
2022-08-17T14:02:46.924Z,54.11
2022-08-17T14:05:15.554Z,52.83
2022-08-17T14:07:50.302Z,53.01
2022-08-17T14:10:20.434Z,53.09
2022-08-17T14:12:50.449Z,52.74
2022-08-17T14:15:22.134Z,52.71
2022-08-17T14:17:52.277Z,52.54
2022-08-17T14:20:22.935Z,53.00
2022-08-17T14:22:55.994Z,52.92
2022-08-17T14:25:26.999Z,52.39
2022-08-17T14:27:56.639Z,50.93
2022-08-17T14:30:29.728Z,48.02
2022-08-17T14:32:59.647Z,46.85
2022-08-17T14:35:29.736Z,46.14
2022-08-17T14:37:59.966Z,47.04
2022-08-17T14:40:28.465Z,48.03
2022-08-17T14:42:58.659Z,48.91
2022-08-17T14:45:32.723Z,49.60
2022-08-17T14:48:04.364Z,49.16
2022-08-17T14:50:35.527Z,48.57
2022-08-17T14:53:06.917Z,49.50
2022-08-17T14:55:37.115Z,50.19
2022-08-17T14:58:05.617Z,50.10
2022-08-17T15:00:34.266Z,50.28
2022-08-17T15:03:03.443Z,47.60
2022-08-17T15:05:34.027Z,47.66
2022-08-17T15:08:05.780Z,47.38
2022-08-17T15:10:35.050Z,45.75
2022-08-17T15:13:03.859Z,46.01
2022-08-17T15:16:09.955Z,45.95
2022-08-17T15:19:08.175Z,46.21
2022-08-17T15:21:39.076Z,45.96
2022-08-17T15:24:09.974Z,44.30
2022-08-17T15:26:39.387Z,45.25
2022-08-17T15:29:10.401Z,45.06
2022-08-17T15:31:39.222Z,45.51
2022-08-17T15:34:08.185Z,44.77
2022-08-17T15:36:37.704Z,45.78
2022-08-17T15:39:13.984Z,46.26
2022-08-17T15:41:58.145Z,45.45
2022-08-17T15:44:32.669Z,45.95
2022-08-17T15:47:05.197Z,48.36
2022-08-17T15:49:34.046Z,46.63
2022-08-17T15:52:02.766Z,45.29
2022-08-17T15:54:34.880Z,44.60
2022-08-17T15:57:05.105Z,45.07
2022-08-17T15:59:33.725Z,44.03
2022-08-17T16:03:13.587Z,43.44
2022-08-17T16:04:52.290Z,46.71
2022-08-17T16:07:26.584Z,48.62
2022-08-17T16:09:57.175Z,46.92
2022-08-17T16:12:26.825Z,46.17
2022-08-17T16:14:58.545Z,44.66
2022-08-17T16:17:39.790Z,43.17
2022-08-17T16:20:10.474Z,43.35
2022-08-17T16:22:50.645Z,43.13
2022-08-17T16:25:40.298Z,44.41
2022-08-17T16:28:17.775Z,43.64
2022-08-17T16:30:46.589Z,45.63
2022-08-17T16:33:16.903Z,45.04
2022-08-17T16:35:47.305Z,46.92
2022-08-17T16:38:16.065Z,44.21
2022-08-17T16:40:46.075Z,43.86
2022-08-17T16:43:15.585Z,44.04
2022-08-17T16:45:47.477Z,43.67
2022-08-17T16:48:18.825Z,44.11
2022-08-17T16:51:03.665Z,45.38
2022-08-17T17:17:16.829Z,46.01
2022-08-17T17:19:52.405Z,46.26
2022-08-17T17:22:25.464Z,44.67
2022-08-17T17:25:11.094Z,44.61
2022-08-17T17:27:47.546Z,43.55
2022-08-17T17:30:21.568Z,43.17
2022-08-17T17:32:55.836Z,43.17
2022-08-17T17:35:31.896Z,43.73
2022-08-17T17:38:05.139Z,44.57
2022-08-17T17:40:38.794Z,45.16
2022-08-17T17:43:36.853Z,45.65
2022-08-17T17:46:26.784Z,46.13
2022-08-17T17:48:52.165Z,44.58
2022-08-17T17:52:06.401Z,44.86
2022-08-17T17:54:32.825Z,44.17
2022-08-17T17:57:08.596Z,43.75
2022-08-17T17:59:53.515Z,44.21
2022-08-17T18:02:52.884Z,44.87
2022-08-17T18:05:43.030Z,45.94
2022-08-17T18:09:03.308Z,46.35
2022-08-17T18:11:59.994Z,46.73
2022-08-17T18:14:47.995Z,46.90
2022-08-17T18:17:18.376Z,47.36
2022-08-17T18:19:48.469Z,45.75
2022-08-17T18:22:21.180Z,45.80
2022-08-17T18:24:56.075Z,45.49
2022-08-17T18:27:32.454Z,44.96
2022-08-17T18:30:08.611Z,45.00
2022-08-17T18:32:40.274Z,45.00
2022-08-17T18:35:30.637Z,44.72
2022-08-17T18:38:21.569Z,44.78
2022-08-17T18:41:01.265Z,44.45
2022-08-17T18:43:44.009Z,43.78
2022-08-17T18:46:29.763Z,44.59
2022-08-17T18:49:02.139Z,44.04
2022-08-17T18:51:40.440Z,44.36
2022-08-17T18:54:22.505Z,44.63
2022-08-17T18:56:55.228Z,44.59
2022-08-17T18:59:30.705Z,44.48
2022-08-17T19:02:11.633Z,44.63
2022-08-17T19:04:59.282Z,45.19
2022-08-17T19:07:31.736Z,45.57
2022-08-17T19:10:11.665Z,45.76
2022-08-17T19:12:45.425Z,45.79
2022-08-17T19:15:16.871Z,45.58
2022-08-17T19:17:49.635Z,45.67
2022-08-17T19:20:23.415Z,45.60
2022-08-17T19:23:04.984Z,45.93
2022-08-17T19:25:40.444Z,45.81
2022-08-17T19:28:15.371Z,46.26
2022-08-17T19:30:52.005Z,46.49
2022-08-17T19:33:20.915Z,46.91
2022-08-17T19:35:59.291Z,47.26
2022-08-17T19:38:38.101Z,47.96
2022-08-17T19:41:14.656Z,48.32
2022-08-17T19:44:06.205Z,48.09
2022-08-17T19:46:50.072Z,47.83
2022-08-17T19:49:41.415Z,47.66
2022-08-17T19:52:24.337Z,47.41
2022-08-17T19:55:09.404Z,47.35
2022-08-17T19:57:50.713Z,47.76
2022-08-17T20:00:20.907Z,48.04
2022-08-17T20:02:56.429Z,48.22
2022-08-17T20:05:30.545Z,47.92
2022-08-17T20:08:04.554Z,47.93
2022-08-17T20:10:54.743Z,48.21
2022-08-17T20:13:33.933Z,48.71
2022-08-17T20:16:03.865Z,48.45
2022-08-17T20:18:46.016Z,48.51
2022-08-17T20:21:29.239Z,48.40
2022-08-17T20:24:03.289Z,48.58
2022-08-17T20:26:55.302Z,48.73
2022-08-17T20:29:40.555Z,48.99
2022-08-17T20:32:28.245Z,48.93
2022-08-17T20:35:18.092Z,48.94
2022-08-17T20:37:54.493Z,49.23
2022-08-17T20:40:30.524Z,49.34
2022-08-17T20:43:00.124Z,51.49
2022-08-17T20:46:03.379Z,51.74
2022-08-17T20:48:38.916Z,51.25
2022-08-17T20:51:27.496Z,50.45
2022-08-17T20:54:39.214Z,51.33
2022-08-17T20:57:14.103Z,51.36
2022-08-17T21:00:14.285Z,50.81
2022-08-17T21:02:45.925Z,51.33
2022-08-17T21:05:38.821Z,51.20
2022-08-17T21:08:16.385Z,50.87
2022-08-17T21:10:47.367Z,51.45
2022-08-17T21:13:51.350Z,51.57
2022-08-17T21:16:43.545Z,52.34
2022-08-17T21:19:30.932Z,51.51
2022-08-17T21:22:12.269Z,51.30
2022-08-17T21:24:52.985Z,51.65
2022-08-17T21:27:30.455Z,51.55
2022-08-17T21:30:22.725Z,51.68
2022-08-17T21:33:20.444Z,51.84
2022-08-17T21:35:58.536Z,51.67
2022-08-17T21:38:35.955Z,51.75
2022-08-17T21:41:04.641Z,51.42
2022-08-17T21:43:36.785Z,52.13
2022-08-17T21:46:09.791Z,53.13
2022-08-17T21:48:45.361Z,52.01
2022-08-17T21:51:21.174Z,51.82
2022-08-17T21:53:52.742Z,51.82
2022-08-17T21:56:29.007Z,51.81
2022-08-17T21:59:01.162Z,51.57
2022-08-17T22:01:34.740Z,51.66
2022-08-17T22:04:06.876Z,51.66
2022-08-17T22:06:41.121Z,51.64
2022-08-17T22:09:19.485Z,51.49
2022-08-17T22:12:07.746Z,51.64
2022-08-17T22:14:53.296Z,51.92
2022-08-17T22:17:26.127Z,51.59
2022-08-17T22:19:57.780Z,51.73
2022-08-17T22:22:35.158Z,51.73
2022-08-17T22:25:07.383Z,51.94
2022-08-17T22:27:51.726Z,52.04
2022-08-17T22:30:35.398Z,52.02
2022-08-17T22:33:31.698Z,52.02
2022-08-17T22:36:14.862Z,51.97
2022-08-17T22:38:45.287Z,51.92
2022-08-17T22:41:35.793Z,51.95
2022-08-17T22:44:21.256Z,52.50
2022-08-17T22:46:55.523Z,52.45
2022-08-17T22:49:27.686Z,52.55
2022-08-17T22:52:29.094Z,52.61
2022-08-17T22:55:33.505Z,52.84
2022-08-17T22:58:20.287Z,52.94
2022-08-17T23:00:50.816Z,52.87
2022-08-17T23:03:22.384Z,52.88
2022-08-17T23:06:05.628Z,52.70
2022-08-17T23:08:36.276Z,52.62
2022-08-17T23:11:07.539Z,53.07
2022-08-17T23:13:37.823Z,52.89
2022-08-17T23:16:06.656Z,52.98
2022-08-17T23:18:35.756Z,53.20
2022-08-17T23:21:05.267Z,53.09
2022-08-17T23:23:33.728Z,52.94
2022-08-17T23:26:03.157Z,53.16
2022-08-17T23:28:37.667Z,52.76
2022-08-17T23:31:07.756Z,52.87
2022-08-17T23:33:37.487Z,53.09
2022-08-17T23:36:15.263Z,52.85
2022-08-17T23:38:47.097Z,53.00
2022-08-17T23:41:19.887Z,52.91
2022-08-17T23:43:52.038Z,52.73
2022-08-17T23:46:25.303Z,52.77
2022-08-17T23:48:54.838Z,52.70
2022-08-17T23:51:27.516Z,52.92
2022-08-17T23:54:02.112Z,53.17
2022-08-17T23:56:33.828Z,53.13
2022-08-17T23:59:03.986Z,53.20
